createdAt,value
2016-04-20T08:27:38.891Z,1025.74
2016-04-20T08:28:38.894Z,1025.71
2016-04-20T08:29:38.896Z,1025.75
2016-04-20T08:30:38.914Z,1025.77
2016-04-20T08:31:38.917Z,1025.78
2016-04-20T08:32:38.919Z,1025.79
2016-04-20T08:33:39.282Z,1025.8
2016-04-20T08:34:38.941Z,1025.81
2016-04-20T08:35:38.943Z,1025.79
2016-04-20T08:36:38.962Z,1025.79
2016-04-20T08:37:38.965Z,1025.79
2016-04-20T08:38:38.967Z,1025.72
2016-04-20T08:39:38.985Z,1025.77
2016-04-20T08:40:38.988Z,1025.77
2016-04-20T08:41:39.007Z,1025.74
2016-04-20T08:42:39.009Z,1025.77
2016-04-20T08:43:39.012Z,1025.73
2016-04-20T08:44:39.015Z,1025.74
2016-04-20T08:45:39.034Z,1025.77
2016-04-20T08:46:39.036Z,1025.76
2016-04-20T08:47:39.039Z,1025.76
2016-04-20T08:48:39.042Z,1025.78
2016-04-20T08:49:39.076Z,1025.76
2016-04-20T08:50:39.078Z,1025.75
2016-04-20T08:51:39.065Z,1025.74
2016-04-20T08:52:39.083Z,1025.75
2016-04-20T08:53:39.086Z,1025.72
2016-04-20T08:54:39.104Z,1025.75
2016-04-20T08:55:39.106Z,1025.74
2016-04-20T08:56:39.109Z,1025.76
2016-04-20T08:57:39.127Z,1025.74
2016-04-20T08:58:39.131Z,1025.73
2016-04-20T08:59:39.133Z,1025.7
2016-04-20T09:00:39.136Z,1025.72
2016-04-20T09:01:39.155Z,1025.74
2016-04-20T09:02:39.157Z,1025.72
2016-04-20T09:03:39.175Z,1025.69
2016-04-20T09:04:39.177Z,1025.66
2016-04-20T09:05:39.180Z,1025.77
2016-04-20T09:06:39.198Z,1025.75
2016-04-20T09:07:39.202Z,1025.75
2016-04-20T09:08:39.204Z,1025.77
2016-04-20T09:09:39.207Z,1025.75
2016-04-20T09:10:39.226Z,1025.72
2016-04-20T09:11:39.229Z,1025.75
2016-04-20T09:12:39.231Z,1025.75
2016-04-20T09:13:39.249Z,1025.73
2016-04-20T09:14:39.252Z,1025.71
2016-04-20T09:15:39.270Z,1025.73
2016-04-20T09:16:39.273Z,1025.76
2016-04-20T09:17:39.275Z,1025.76
2016-04-20T09:18:39.278Z,1025.77
2016-04-20T09:19:39.312Z,1025.74
2016-04-20T09:20:39.299Z,1025.79
2016-04-20T09:21:39.301Z,1025.76
2016-04-20T09:22:39.319Z,1025.75
2016-04-20T09:23:39.322Z,1025.79
2016-04-20T09:24:39.325Z,1025.73
2016-04-20T09:25:39.343Z,1025.76
2016-04-20T09:26:39.346Z,1025.76
2016-04-20T09:27:39.348Z,1025.77
2016-04-20T09:28:39.366Z,1025.78
2016-04-20T09:29:39.369Z,1025.76
2016-04-20T09:30:39.388Z,1025.78
2016-04-20T09:31:39.390Z,1025.78
2016-04-20T09:32:39.393Z,1025.74
2016-04-20T09:33:39.395Z,1025.76
2016-04-20T09:34:39.414Z,1025.72
2016-04-20T09:35:39.417Z,1025.72
2016-04-20T09:36:39.434Z,1025.64
2016-04-20T09:37:39.437Z,1025.72
2016-04-20T09:38:39.439Z,1025.73
2016-04-20T09:39:39.459Z,1025.77
2016-04-20T09:40:39.461Z,1025.71
2016-04-20T09:41:39.464Z,1025.73
2016-04-20T09:42:39.467Z,1025.7
2016-04-20T09:43:39.484Z,1025.64
2016-04-20T09:44:39.487Z,1025.69
2016-04-20T09:45:39.489Z,1025.67
2016-04-20T09:46:39.508Z,1025.65
2016-04-20T09:47:39.511Z,1025.63
2016-04-20T09:48:39.530Z,1025.63
2016-04-20T09:49:39.533Z,1025.67
2016-04-20T09:50:39.535Z,1025.69
2016-04-20T09:51:39.553Z,1025.65
2016-04-20T09:52:39.555Z,1025.64
2016-04-20T09:53:39.558Z,1025.67
2016-04-20T09:54:39.561Z,1025.6
2016-04-20T09:55:39.580Z,1025.6
2016-04-20T09:56:39.582Z,1025.59
2016-04-20T09:57:39.585Z,1025.53
2016-04-20T09:58:39.604Z,1025.52
2016-04-20T09:59:39.606Z,1025.53
2016-04-20T10:00:39.609Z,1025.51
2016-04-20T10:01:39.626Z,1025.52
2016-04-20T10:02:39.629Z,1025.52
2016-04-20T10:03:39.648Z,1025.49
2016-04-20T10:04:39.650Z,1025.44
2016-04-20T10:05:39.653Z,1025.49
2016-04-20T10:06:39.656Z,1025.46
2016-04-20T10:07:39.673Z,1025.42
2016-04-20T10:08:39.676Z,1025.41
2016-04-20T10:09:39.679Z,1025.39
2016-04-20T10:10:39.698Z,1025.33
2016-04-20T10:11:39.701Z,1025.38
2016-04-20T10:12:39.703Z,1025.39
2016-04-20T10:13:39.722Z,1025.41
2016-04-20T10:14:39.725Z,1025.39
2016-04-20T10:15:39.728Z,1025.34
2016-04-20T10:16:39.745Z,1025.39
2016-04-20T10:17:39.748Z,1025.33
2016-04-20T10:18:39.751Z,1025.29
2016-04-20T10:19:39.753Z,1025.22
2016-04-20T10:20:39.772Z,1025.24
2016-04-20T10:21:39.775Z,1025.25
2016-04-20T10:22:39.777Z,1025.24
2016-04-20T10:23:39.780Z,1025.19
2016-04-20T10:24:39.799Z,1025.21
2016-04-20T10:25:39.801Z,1025.2
2016-04-20T10:26:39.804Z,1025.19
2016-04-20T10:27:39.806Z,1025.2
2016-04-20T10:28:39.809Z,1025.22
2016-04-20T10:29:39.827Z,1025.22
2016-04-20T10:30:39.815Z,1025.23
2016-04-20T10:31:39.832Z,1025.23
2016-04-20T10:32:39.835Z,1025.19
2016-04-20T10:33:39.838Z,1025.16
2016-04-20T10:34:39.841Z,1025.13
2016-04-20T10:35:39.844Z,1025.12
2016-04-20T10:36:39.846Z,1025.14
2016-04-20T10:37:39.848Z,1025.15
2016-04-20T10:38:39.851Z,1025.13
2016-04-20T10:39:39.854Z,1025.12
2016-04-20T10:40:39.856Z,1025.07
2016-04-20T10:41:39.860Z,1025.11
2016-04-20T10:42:39.878Z,1025.05
2016-04-20T10:43:39.881Z,1025.04
2016-04-20T10:44:39.883Z,1025.05
2016-04-20T10:45:39.886Z,1025.02
2016-04-20T10:46:39.889Z,1025
2016-04-20T10:47:39.892Z,1024.96
2016-04-20T10:48:39.894Z,1024.95
2016-04-20T10:49:39.897Z,1024.91
2016-04-20T10:50:39.899Z,1024.94
2016-04-20T10:51:39.902Z,1024.93
2016-04-20T10:52:39.905Z,1024.87
2016-04-20T10:53:39.907Z,1024.89
2016-04-20T10:54:39.910Z,1024.9
2016-04-20T10:55:39.928Z,1024.93
2016-04-20T10:56:39.931Z,1024.92
2016-04-20T10:57:39.933Z,1024.88
2016-04-20T10:58:39.936Z,1024.85
2016-04-20T10:59:39.938Z,1024.97
2016-04-20T11:00:39.941Z,1024.91
2016-04-20T11:01:39.944Z,1024.88
2016-04-20T11:02:39.947Z,1024.86
2016-04-20T11:03:39.950Z,1024.87
2016-04-20T11:04:39.968Z,1024.84
2016-04-20T11:05:39.971Z,1024.84
2016-04-20T11:06:39.957Z,1024.82
2016-04-20T11:07:39.960Z,1024.8
2016-04-20T11:08:39.963Z,1024.76
2016-04-20T11:09:39.966Z,1024.73
2016-04-20T11:10:39.968Z,1024.74
2016-04-20T11:11:39.971Z,1024.73
2016-04-20T11:12:39.974Z,1024.69
2016-04-20T11:13:39.977Z,1024.76
2016-04-20T11:14:39.979Z,1024.72
2016-04-20T11:15:39.982Z,1024.71
2016-04-20T11:16:40.000Z,1024.64
2016-04-20T11:17:40.003Z,1024.66
2016-04-20T11:18:39.990Z,1024.68
2016-04-20T11:19:40.009Z,1024.61
2016-04-20T11:20:40.012Z,1024.66
2016-04-20T11:21:40.014Z,1024.66
2016-04-20T11:22:40.017Z,1024.65
2016-04-20T11:23:40.300Z,1024.66
2016-04-20T11:24:40.022Z,1024.67
2016-04-20T11:25:40.025Z,1024.64
2016-04-20T11:26:40.027Z,1024.66
2016-04-20T11:27:40.030Z,1024.63
2016-04-20T11:28:40.032Z,1024.7
2016-04-20T11:29:40.035Z,1024.72
2016-04-20T11:30:40.038Z,1024.73
2016-04-20T11:31:40.041Z,1024.69
2016-04-20T11:32:40.044Z,1024.7
2016-04-20T11:33:40.047Z,1024.64
2016-04-20T11:34:40.049Z,1024.59
2016-04-20T11:35:40.052Z,1024.6
2016-04-20T11:36:40.054Z,1024.6
2016-04-20T11:37:40.057Z,1024.55
2016-04-20T11:38:40.060Z,1024.53
2016-04-20T11:39:40.063Z,1024.53
2016-04-20T11:40:40.065Z,1024.55
2016-04-20T11:41:40.068Z,1024.51
2016-04-20T11:42:40.070Z,1024.53
2016-04-20T11:43:40.073Z,1024.56
2016-04-20T11:44:40.075Z,1024.53
2016-04-20T11:45:40.079Z,1024.57
2016-04-20T11:46:40.081Z,1024.53
2016-04-20T11:47:40.083Z,1024.52
2016-04-20T11:48:40.103Z,1024.56
2016-04-20T11:49:40.089Z,1024.52
2016-04-20T11:50:40.092Z,1024.56
2016-04-20T11:51:40.095Z,1024.54
2016-04-20T11:52:40.097Z,1024.53
2016-04-20T11:53:40.100Z,1024.52
2016-04-20T11:54:40.103Z,1024.51
2016-04-20T11:55:40.105Z,1024.5
2016-04-20T11:56:40.108Z,1024.5
2016-04-20T11:57:40.110Z,1024.54
2016-04-20T11:58:40.113Z,1024.48
2016-04-20T11:59:40.117Z,1024.47
2016-04-20T12:00:40.119Z,1024.5
2016-04-20T12:01:40.122Z,1024.48
2016-04-20T12:02:40.124Z,1024.45
2016-04-20T12:03:40.126Z,1024.4
2016-04-20T12:04:40.129Z,1024.44
2016-04-20T12:05:40.180Z,1024.4
2016-04-20T12:06:40.151Z,1024.36
2016-04-20T12:07:40.138Z,1024.38
2016-04-20T12:08:40.140Z,1024.38
2016-04-20T12:09:40.143Z,1024.39
2016-04-20T12:10:40.145Z,1024.36
2016-04-20T12:11:40.148Z,1024.38
2016-04-20T12:12:40.152Z,1024.4
2016-04-20T12:13:40.154Z,1024.37
2016-04-20T12:14:40.157Z,1024.36
2016-04-20T12:15:40.159Z,1024.43
2016-04-20T12:16:40.177Z,1024.4
2016-04-20T12:17:40.165Z,1024.36
2016-04-20T12:18:40.168Z,1024.39
2016-04-20T12:19:40.170Z,1024.34
2016-04-20T12:20:40.204Z,1024.36
2016-04-20T12:21:40.175Z,1024.37
2016-04-20T12:22:40.178Z,1024.34
2016-04-20T12:23:40.197Z,1024.29
2016-04-20T12:24:40.199Z,1024.34
2016-04-20T12:25:40.452Z,1024.31
2016-04-20T12:26:40.204Z,1024.26
2016-04-20T12:27:40.207Z,1024.3
2016-04-20T12:28:40.210Z,1024.3
2016-04-20T12:29:40.213Z,1024.26
2016-04-20T12:30:40.215Z,1024.24
2016-04-20T12:31:40.219Z,1024.25
2016-04-20T12:32:40.220Z,1024.24
2016-04-20T12:33:40.223Z,1024.2
2016-04-20T12:34:40.226Z,1024.17
2016-04-20T12:35:40.244Z,1024.19
2016-04-20T12:36:40.232Z,1024.22
2016-04-20T12:37:40.250Z,1024.22
2016-04-20T12:38:40.252Z,1024.22
2016-04-20T12:39:40.255Z,1024.17
2016-04-20T12:40:40.258Z,1024.25
2016-04-20T12:41:40.261Z,1024.23
2016-04-20T12:42:40.263Z,1024.22
2016-04-20T12:43:40.265Z,1024.23
2016-04-20T12:44:40.268Z,1024.22
2016-04-20T12:45:40.271Z,1024.24
2016-04-20T12:46:40.274Z,1024.22
2016-04-20T12:47:40.277Z,1024.25
2016-04-20T12:48:40.295Z,1024.26
2016-04-20T12:49:40.298Z,1024.23
2016-04-20T12:50:40.316Z,1024.23
2016-04-20T12:51:40.303Z,1024.2
2016-04-20T12:52:40.306Z,1024.15
2016-04-20T12:53:40.308Z,1024.21
2016-04-20T12:54:40.311Z,1024.21
2016-04-20T12:55:40.314Z,1024.16
2016-04-20T12:56:40.317Z,1024.14
2016-04-20T12:57:40.335Z,1024.13
2016-04-20T12:58:40.322Z,1024.13
2016-04-20T12:59:40.341Z,1024.17
2016-04-20T13:00:40.327Z,1024.12
2016-04-20T13:01:40.345Z,1024.16
2016-04-20T13:02:40.348Z,1024.15
2016-04-20T13:03:40.352Z,1024.16
2016-04-20T13:04:40.354Z,1024.15
2016-04-20T13:05:40.357Z,1024.12
2016-04-20T13:06:40.374Z,1024.13
2016-04-20T13:07:40.377Z,1024.13
2016-04-20T13:08:40.380Z,1024.14
2016-04-20T13:09:40.383Z,1024.12
2016-04-20T13:10:40.385Z,1024.17
2016-04-20T13:11:40.387Z,1024.15
2016-04-20T13:12:40.390Z,1024.13
2016-04-20T13:13:40.393Z,1024.18
2016-04-20T13:14:40.396Z,1024.07
2016-04-20T13:15:40.399Z,1024.06
2016-04-20T13:16:40.401Z,1024.06
2016-04-20T13:17:40.404Z,1024.08
2016-04-20T13:18:40.407Z,1024.1
2016-04-20T13:19:40.409Z,1024.07
2016-04-20T13:20:40.428Z,1024.05
2016-04-20T13:21:40.415Z,1024.03
2016-04-20T13:22:40.417Z,1024.06
2016-04-20T13:23:40.420Z,1024.02
2016-04-20T13:24:40.422Z,1023.95
2016-04-20T13:25:40.425Z,1024.05
2016-04-20T13:26:40.428Z,1024.02
2016-04-20T13:27:40.431Z,1024.06
2016-04-20T13:28:40.434Z,1024.09
2016-04-20T13:29:40.436Z,1024.07
2016-04-20T13:30:40.439Z,1024.11
2016-04-20T13:31:40.457Z,1024.07
2016-04-20T13:32:40.445Z,1024
2016-04-20T13:33:40.447Z,1024.02
2016-04-20T13:34:40.450Z,1023.98
2016-04-20T13:35:40.452Z,1023.95
2016-04-20T13:36:40.440Z,1023.95
2016-04-20T13:37:40.457Z,1023.92
2016-04-20T13:38:40.461Z,1023.9
2016-04-20T13:39:40.448Z,1023.9
2016-04-20T13:40:40.451Z,1023.92
2016-04-20T13:41:40.454Z,1023.94
2016-04-20T13:42:40.456Z,1023.95
2016-04-20T13:43:40.458Z,1023.91
2016-04-20T13:44:40.462Z,1023.96
2016-04-20T13:45:40.479Z,1023.97
2016-04-20T13:46:40.467Z,1023.85
2016-04-20T13:47:40.469Z,1023.89
2016-04-20T13:48:40.473Z,1023.93
2016-04-20T13:49:40.475Z,1023.89
2016-04-20T13:50:40.493Z,1023.89
2016-04-20T13:51:40.480Z,1023.86
2016-04-20T13:52:40.484Z,1023.88
2016-04-20T13:53:40.470Z,1023.86
2016-04-20T13:54:40.488Z,1023.85
2016-04-20T13:55:40.491Z,1023.83
2016-04-20T13:56:40.494Z,1023.87
2016-04-20T13:57:40.496Z,1023.9
2016-04-20T13:58:40.500Z,1023.88
2016-04-20T13:59:40.502Z,1023.87
2016-04-20T14:00:40.505Z,1023.86
2016-04-20T14:01:40.508Z,1023.86
2016-04-20T14:02:40.510Z,1023.84
2016-04-20T14:03:40.513Z,1023.84
2016-04-20T14:04:40.515Z,1023.83
2016-04-20T14:05:40.518Z,1023.85
2016-04-20T14:06:40.520Z,1023.81
2016-04-20T14:07:40.524Z,1023.82
2016-04-20T14:08:40.526Z,1023.8
2016-04-20T14:09:40.529Z,1023.81
2016-04-20T14:10:40.532Z,1023.78
2016-04-20T14:11:40.534Z,1023.74
2016-04-20T14:12:40.537Z,1023.7
2016-04-20T14:13:40.540Z,1023.71
2016-04-20T14:14:40.543Z,1023.7
2016-04-20T14:15:40.545Z,1023.66
2016-04-20T14:16:40.547Z,1023.63
2016-04-20T14:17:40.550Z,1023.63
2016-04-20T14:18:40.553Z,1023.6
2016-04-20T14:19:40.556Z,1023.59
2016-04-20T14:20:40.559Z,1023.56
2016-04-20T14:21:40.561Z,1023.53
2016-04-20T14:22:40.565Z,1023.52
2016-04-20T14:23:40.567Z,1023.51
2016-04-20T14:24:40.570Z,1023.49
2016-04-20T14:25:40.573Z,1023.53
2016-04-20T14:26:40.576Z,1023.56
2016-04-20T14:27:40.578Z,1023.49
2016-04-20T14:28:40.581Z,1023.55
2016-04-20T14:29:40.584Z,1023.51
2016-04-20T14:30:40.587Z,1023.48
2016-04-20T14:31:40.589Z,1023.49
2016-04-20T14:32:40.591Z,1023.4
2016-04-20T14:33:40.594Z,1023.4
2016-04-20T14:34:40.597Z,1023.37
2016-04-20T14:35:40.600Z,1023.43
2016-04-20T14:36:40.602Z,1023.41
2016-04-20T14:37:40.605Z,1023.38
2016-04-20T14:38:40.608Z,1023.42
2016-04-20T14:39:40.611Z,1023.4
2016-04-20T14:40:40.613Z,1023.42
2016-04-20T14:41:40.631Z,1023.41
2016-04-20T14:42:40.634Z,1023.39
2016-04-20T14:43:40.621Z,1023.34
2016-04-20T14:44:40.624Z,1023.34
2016-04-20T14:45:40.627Z,1023.38
2016-04-20T14:46:40.630Z,1023.36
2016-04-20T14:47:40.632Z,1023.38
2016-04-20T14:48:40.635Z,1023.32
2016-04-20T14:49:40.638Z,1023.31
2016-04-20T14:50:40.640Z,1023.32
2016-04-20T14:51:40.643Z,1023.35
2016-04-20T14:52:40.645Z,1023.3
2016-04-20T14:53:40.648Z,1023.25
2016-04-20T14:54:40.651Z,1023.26
2016-04-20T14:55:40.654Z,1023.31
2016-04-20T14:56:40.656Z,1023.24
2016-04-20T14:57:40.659Z,1023.25
2016-04-20T14:58:40.662Z,1023.25
2016-04-20T14:59:40.665Z,1023.27
2016-04-20T15:00:40.667Z,1023.29
2016-04-20T15:01:40.670Z,1023.29
2016-04-20T15:02:40.672Z,1023.27
2016-04-20T15:03:40.690Z,1023.24
2016-04-20T15:04:40.677Z,1023.23
2016-04-20T15:05:40.680Z,1023.22
2016-04-20T15:06:40.683Z,1023.17
2016-04-20T15:07:40.686Z,1023.16
2016-04-20T15:08:40.689Z,1023.15
2016-04-20T15:09:40.692Z,1023.16
2016-04-20T15:10:40.709Z,1023.14
2016-04-20T15:11:40.697Z,1023.15
2016-04-20T15:12:40.714Z,1023.21
2016-04-20T15:13:40.702Z,1023.17
2016-04-20T15:14:40.704Z,1023.13
2016-04-20T15:15:40.707Z,1023.18
2016-04-20T15:16:40.710Z,1023.16
2016-04-20T15:17:40.712Z,1023.2
2016-04-20T15:18:40.730Z,1023.17
2016-04-20T15:19:40.733Z,1023.12
2016-04-20T15:20:40.736Z,1023.11
2016-04-20T15:21:40.723Z,1023.15
2016-04-20T15:22:40.741Z,1023.24
2016-04-20T15:23:40.744Z,1023.18
2016-04-20T15:24:40.731Z,1023.11
2016-04-20T15:25:40.749Z,1023.07
2016-04-20T15:26:40.752Z,1023.06
2016-04-20T15:27:40.754Z,1023
2016-04-20T15:28:40.758Z,1023.09
2016-04-20T15:29:40.760Z,1023.08
2016-04-20T15:30:40.763Z,1023.05
2016-04-20T15:31:40.765Z,1022.98
2016-04-20T15:32:40.768Z,1023.04
2016-04-20T15:33:40.771Z,1023.04
2016-04-20T15:34:40.773Z,1023.06
2016-04-20T15:35:40.776Z,1023.03
2016-04-20T15:36:40.767Z,1023.05
2016-04-20T15:37:40.786Z,1022.99
2016-04-20T15:38:40.789Z,1022.95
2016-04-20T15:39:40.791Z,1022.98
2016-04-20T15:40:40.795Z,1022.99
2016-04-20T15:41:40.797Z,1022.96
2016-04-20T15:42:40.800Z,1022.94
2016-04-20T15:43:40.803Z,1023
2016-04-20T15:44:40.806Z,1023.01
2016-04-20T15:45:40.808Z,1022.97
2016-04-20T15:46:40.811Z,1022.98
2016-04-20T15:47:40.814Z,1022.94
2016-04-20T15:48:40.817Z,1022.92
2016-04-20T15:49:40.819Z,1022.94
2016-04-20T15:50:40.822Z,1022.94
2016-04-20T15:51:40.965Z,1022.9
2016-04-20T15:52:40.827Z,1022.87
2016-04-20T15:53:40.846Z,1022.87
2016-04-20T15:54:40.848Z,1022.88
2016-04-20T15:55:40.851Z,1022.86
2016-04-20T15:56:40.853Z,1022.89
2016-04-20T15:57:40.856Z,1022.84
2016-04-20T15:58:40.911Z,1022.79
2016-04-20T15:59:40.940Z,1022.78
2016-04-20T16:00:41.000Z,1022.77
2016-04-20T16:01:41.044Z,1022.75
2016-04-20T16:02:41.088Z,1022.72
2016-04-20T16:03:41.099Z,1022.76
2016-04-20T16:04:41.128Z,1022.72
2016-04-20T16:06:56.473Z,1022.71
2016-04-20T16:07:56.488Z,1022.69
2016-04-20T16:08:56.496Z,1022.64
2016-04-20T16:09:56.505Z,1022.69
2016-04-20T16:10:56.512Z,1022.75
2016-04-20T16:11:56.521Z,1022.75
2016-04-20T16:12:56.527Z,1022.74
2016-04-20T16:13:56.532Z,1022.79
2016-04-20T16:14:56.537Z,1022.76
2016-04-20T16:15:56.542Z,1022.74
2016-04-20T16:16:56.545Z,1022.79
2016-04-20T16:17:56.550Z,1022.71
2016-04-20T16:18:56.554Z,1022.71
2016-04-20T16:19:56.557Z,1022.69
2016-04-20T16:20:56.561Z,1022.71
2016-04-20T16:21:56.564Z,1022.67
2016-04-20T16:22:56.568Z,1022.64
2016-04-20T16:23:56.570Z,1022.6
2016-04-20T16:24:56.573Z,1022.62
2016-04-20T16:25:56.576Z,1022.59
2016-04-20T16:26:56.579Z,1022.62
2016-04-20T16:27:56.582Z,1022.63
2016-04-20T16:28:56.585Z,1022.59
2016-04-20T16:29:56.588Z,1022.62
2016-04-20T16:30:56.591Z,1022.62
2016-04-20T16:31:56.593Z,1022.6
2016-04-20T16:32:56.596Z,1022.57
2016-04-20T16:33:56.598Z,1022.54
2016-04-20T16:34:56.601Z,1022.46
2016-04-20T16:35:56.604Z,1022.43
2016-04-20T16:36:56.606Z,1022.48
2016-04-20T16:37:56.609Z,1022.43
2016-04-20T16:38:56.612Z,1022.44
2016-04-20T16:39:56.630Z,1022.52
2016-04-20T16:40:56.617Z,1022.44
2016-04-20T16:41:56.635Z,1022.46
2016-04-20T16:42:56.638Z,1022.43
2016-04-20T16:43:56.640Z,1022.35
2016-04-20T16:44:56.643Z,1022.37
2016-04-20T16:45:56.646Z,1022.41
2016-04-20T16:46:56.648Z,1022.38
2016-04-20T16:47:56.651Z,1022.43
2016-04-20T16:48:56.670Z,1022.41
2016-04-20T16:49:56.673Z,1022.43
2016-04-20T16:50:56.660Z,1022.4
2016-04-20T16:51:56.662Z,1022.44
2016-04-20T16:52:56.712Z,1022.33
2016-04-20T16:53:56.683Z,1022.35
2016-04-20T16:54:56.670Z,1022.39
2016-04-20T16:55:56.689Z,1022.4
2016-04-20T16:56:56.691Z,1022.34
2016-04-20T16:57:56.694Z,1022.34
2016-04-20T16:58:56.697Z,1022.31
2016-04-20T16:59:56.700Z,1022.35
2016-04-20T17:00:56.702Z,1022.31
2016-04-20T17:01:56.705Z,1022.33
2016-04-20T17:02:56.707Z,1022.34
2016-04-20T17:03:56.710Z,1022.31
2016-04-20T17:04:56.697Z,1022.33
2016-04-20T17:05:56.700Z,1022.29
2016-04-20T17:06:56.702Z,1022.27
2016-04-20T17:07:56.721Z,1022.29
2016-04-20T17:08:56.724Z,1022.25
2016-04-20T17:09:56.726Z,1022.28
2016-04-20T17:10:56.713Z,1022.21
2016-04-20T17:11:56.919Z,1022.19
2016-04-20T17:12:56.735Z,1022.2
2016-04-20T17:13:56.721Z,1022.2
2016-04-20T17:14:56.740Z,1022.17
2016-04-20T17:15:56.743Z,1022.2
2016-04-20T17:16:56.746Z,1022.19
2016-04-20T17:17:56.764Z,1022.19
2016-04-20T17:18:56.766Z,1022.18
2016-04-20T17:19:56.753Z,1022.17
2016-04-20T17:20:56.756Z,1022.17
2016-04-20T17:21:56.759Z,1022.17
2016-04-20T17:22:56.762Z,1022.13
2016-04-20T17:23:56.764Z,1022.12
2016-04-20T17:24:56.767Z,1022.11
2016-04-20T17:25:56.770Z,1022.07
2016-04-20T17:26:56.772Z,1022.11
2016-04-20T17:27:56.774Z,1022.09
2016-04-20T17:28:56.777Z,1022.04
2016-04-20T17:29:56.781Z,1022.09
2016-04-20T17:30:56.783Z,1022.06
2016-04-20T17:31:56.801Z,1022.12
2016-04-20T17:32:56.789Z,1022.09
2016-04-20T17:33:56.807Z,1022.15
2016-04-20T17:34:56.794Z,1022.12
2016-04-20T17:35:56.797Z,1022.09
2016-04-20T17:36:56.815Z,1022.09
2016-04-20T17:37:56.802Z,1022.05
2016-04-20T17:38:56.820Z,1022.12
2016-04-20T17:39:56.807Z,1022.1
2016-04-20T17:40:56.810Z,1022.09
2016-04-20T17:41:56.813Z,1022.07
2016-04-20T17:42:56.816Z,1022.06
2016-04-20T17:43:56.818Z,1022.08
2016-04-20T17:44:56.821Z,1022.08
2016-04-20T17:45:56.824Z,1022.08
2016-04-20T17:46:56.842Z,1022.06
2016-04-20T17:47:56.829Z,1022.11
2016-04-20T17:48:56.847Z,1022.06
2016-04-20T17:49:56.835Z,1022.08
2016-04-20T17:50:56.837Z,1022.12
2016-04-20T17:51:56.840Z,1022.12
2016-04-20T17:52:56.842Z,1022.09
2016-04-20T17:53:59.851Z,1022.08
2016-04-20T17:54:56.869Z,1022.08
2016-04-20T17:55:56.856Z,1022.06
2016-04-20T17:56:56.874Z,1022.1
2016-04-20T17:57:56.862Z,1022.11
2016-04-20T17:58:56.848Z,1022.05
2016-04-20T17:59:56.867Z,1022.09
2016-04-20T18:00:56.869Z,1022.05
2016-04-20T18:01:56.872Z,1022.05
2016-04-20T18:02:56.875Z,1022.05
2016-04-20T18:03:56.877Z,1022.07
2016-04-20T18:04:56.896Z,1022.08
2016-04-20T18:05:56.883Z,1022.12
2016-04-20T18:06:56.900Z,1022.09
2016-04-20T18:07:56.902Z,1022.08
2016-04-20T18:08:56.906Z,1022.09
2016-04-20T18:09:56.923Z,1022.06
2016-04-20T18:10:56.925Z,1022.13
2016-04-20T18:11:56.914Z,1022.09
2016-04-20T18:12:56.931Z,1022.1
2016-04-20T18:13:56.933Z,1022.09
2016-04-20T18:14:56.936Z,1022.1
2016-04-20T18:15:56.939Z,1022.07
2016-04-20T18:16:56.942Z,1022.05
2016-04-20T18:17:56.965Z,1022.03
2016-04-20T18:18:56.967Z,1022.03
2016-04-20T18:19:56.969Z,1022.02
2016-04-20T18:20:56.973Z,1022.05
2016-04-20T18:21:56.980Z,1022.06
2016-04-20T18:22:56.983Z,1022.12
2016-04-20T18:23:56.986Z,1022.09
2016-04-20T18:24:57.003Z,1022.08
2016-04-20T18:25:57.005Z,1022.1
2016-04-20T18:26:57.009Z,1022.14
2016-04-20T18:27:57.027Z,1022.1
2016-04-20T18:28:57.014Z,1022.12
2016-04-20T18:29:57.033Z,1022.1
2016-04-20T18:30:57.035Z,1022.13
2016-04-20T18:31:57.038Z,1022.09
2016-04-20T18:32:57.041Z,1022.15
2016-04-20T18:33:57.058Z,1022.14
2016-04-20T18:34:57.061Z,1022.13
2016-04-20T18:35:57.064Z,1022.16
2016-04-20T18:36:57.083Z,1022.14
2016-04-20T18:37:57.069Z,1022.14
2016-04-20T18:38:57.088Z,1022.15
2016-04-20T18:39:57.091Z,1022.17
2016-04-20T18:40:57.094Z,1022.15
2016-04-20T18:41:57.096Z,1022.16
2016-04-20T18:42:57.115Z,1022.13
2016-04-20T18:43:57.117Z,1022.15
2016-04-20T18:44:57.120Z,1022.12
2016-04-20T18:45:57.137Z,1022.16
2016-04-20T18:46:57.157Z,1022.14
2016-04-20T18:47:57.143Z,1022.14
2016-04-20T18:48:57.146Z,1022.13
2016-04-20T18:49:57.148Z,1022.16
2016-04-20T18:50:57.167Z,1022.17
2016-04-20T18:51:57.169Z,1022.21
2016-04-20T18:52:57.173Z,1022.18
2016-04-20T18:53:57.175Z,1022.17
2016-04-20T18:54:57.194Z,1022.2
2016-04-20T18:55:57.197Z,1022.2
2016-04-20T18:56:57.199Z,1022.19
2016-04-20T18:57:57.202Z,1022.17
2016-04-20T18:58:57.205Z,1022.17
2016-04-20T18:59:57.222Z,1022.18
2016-04-20T19:00:57.226Z,1022.14
2016-04-20T19:01:57.228Z,1022.11
2016-04-20T19:02:57.230Z,1022.11
2016-04-20T19:03:57.249Z,1022.09
2016-04-20T19:04:57.252Z,1022.07
2016-04-20T19:05:57.255Z,1022.05
2016-04-20T19:06:57.289Z,1022.1
2016-04-20T19:07:57.274Z,1022.07
2016-04-20T19:08:57.277Z,1022.08
2016-04-20T19:09:57.280Z,1022.07
2016-04-20T19:10:57.299Z,1022.07
2016-04-20T19:11:57.301Z,1022.07
2016-04-20T19:12:57.305Z,1022.05
2016-04-20T19:13:57.307Z,1022.02
2016-04-20T19:14:57.310Z,1022.02
2016-04-20T19:15:57.329Z,1022.01
2016-04-20T19:16:57.331Z,1022
2016-04-20T19:17:57.333Z,1022.04
2016-04-20T19:18:57.336Z,1022.04
2016-04-20T19:19:57.354Z,1022.06
2016-04-20T19:20:57.357Z,1022.05
2016-04-20T19:21:57.360Z,1022.07
2016-04-20T19:22:57.362Z,1022.11
2016-04-20T19:23:57.381Z,1022.07
2016-04-20T19:24:57.383Z,1022.04
2016-04-20T19:25:57.386Z,1022.06
2016-04-20T19:26:57.389Z,1022.05
2016-04-20T19:27:57.408Z,1022.05
2016-04-20T19:28:57.410Z,1022.07
2016-04-20T19:29:57.413Z,1022.07
2016-04-20T19:30:57.431Z,1022.09
2016-04-20T19:31:57.433Z,1022.06
2016-04-20T19:32:57.437Z,1022.06
2016-04-20T19:33:57.439Z,1022.02
2016-04-20T19:34:57.441Z,1021.98
2016-04-20T19:35:57.460Z,1021.97
2016-04-20T19:36:57.463Z,1021.93
2016-04-20T19:37:57.465Z,1021.96
2016-04-20T19:38:57.469Z,1021.96
2016-04-20T19:39:57.486Z,1021.9
2016-04-20T19:40:57.489Z,1021.91
2016-04-20T19:41:57.492Z,1021.9
2016-04-20T19:42:57.494Z,1021.91
2016-04-20T19:43:57.513Z,1021.9
2016-04-20T19:44:57.515Z,1021.97
2016-04-20T19:45:57.518Z,1021.94
2016-04-20T19:46:57.521Z,1021.95
2016-04-20T19:47:57.540Z,1021.95
2016-04-20T19:48:57.542Z,1021.93
2016-04-20T19:49:57.545Z,1021.98
2016-04-20T19:50:57.548Z,1021.99
2016-04-20T19:51:57.565Z,1021.97
2016-04-20T19:52:57.568Z,1022.03
2016-04-20T19:53:57.570Z,1022.02
2016-04-20T19:54:57.573Z,1022.02
2016-04-20T19:55:57.592Z,1022.04
2016-04-20T19:56:57.595Z,1022.02
2016-04-20T19:57:57.597Z,1022.07
2016-04-20T19:58:57.600Z,1022.04
2016-04-20T19:59:57.619Z,1022.02
2016-04-20T20:00:57.622Z,1022.02
2016-04-20T20:01:57.624Z,1021.98
2016-04-20T20:02:57.627Z,1021.96
2016-04-20T20:03:57.644Z,1021.97
2016-04-20T20:04:57.648Z,1021.96
2016-04-20T20:05:57.650Z,1021.91
2016-04-20T20:06:57.653Z,1021.95
2016-04-20T20:07:57.655Z,1021.92
2016-04-20T20:08:57.674Z,1021.9
2016-04-20T20:09:57.676Z,1021.89
2016-04-20T20:10:57.679Z,1021.89
2016-04-20T20:11:57.683Z,1021.88
2016-04-20T20:12:57.699Z,1021.9
2016-04-20T20:13:57.702Z,1021.88
2016-04-20T20:14:57.705Z,1021.87
2016-04-20T20:15:57.708Z,1021.89
2016-04-20T20:16:57.727Z,1021.89
2016-04-20T20:17:57.729Z,1021.93
2016-04-20T20:18:57.748Z,1021.89
2016-04-20T20:19:57.751Z,1021.91
2016-04-20T20:20:57.737Z,1021.9
2016-04-20T20:21:57.750Z,1021.9
2016-04-20T20:22:57.761Z,1021.92
2016-04-20T20:23:57.779Z,1021.94
2016-04-20T20:24:57.781Z,1021.97
2016-04-20T20:25:57.769Z,1021.91
2016-04-20T20:26:58.036Z,1021.94
2016-04-20T20:27:57.790Z,1021.98
2016-04-20T20:28:57.839Z,1021.98
2016-04-20T20:29:57.794Z,1021.94
2016-04-20T20:30:57.814Z,1021.92
2016-04-20T20:31:57.816Z,1021.93
2016-04-20T20:32:57.819Z,1021.88
2016-04-20T20:33:57.821Z,1021.88
2016-04-20T20:34:57.824Z,1021.87
2016-04-20T20:35:57.843Z,1021.86
2016-04-20T20:36:57.845Z,1021.86